Time;durP1;ratioP1;P1;durP2;ratioP2;P2;SDS_P1;SDS_P2;PMS_P1;PMS_P2;Temp;Humidity;BMP_temperature;BMP_pressure;BME280_temperature;BME280_humidity;BME280_pressure;Samples;Min_cycle;Max_cycle;Signal;HPM_P1;HPM_P2
2022/11/01 00:00:13;;;;;;;15.70;9.43;;;13.20;99.90;;;;;;5013772;28;20045;-65
2022/11/01 00:02:39;;;;;;;14.32;9.75;;;13.10;99.90;;;;;;5034207;28;20057;-66
2022/11/01 00:05:07;;;;;;;19.00;9.77;;;13.10;99.90;;;;;;5016969;28;20041;-65
2022/11/01 00:07:34;;;;;;;19.33;10.07;;;13.20;99.90;;;;;;5016129;28;20496;-66
2022/11/01 00:10:01;;;;;;;21.02;10.98;;;13.20;99.90;;;;;;5017133;28;20049;-66
2022/11/01 00:12:31;;;;;;;14.15;9.50;;;13.20;99.90;;;;;;5016869;28;20045;-67
2022/11/01 00:14:58;;;;;;;14.80;8.68;;;13.20;99.90;;;;;;5033126;28;20073;-66
2022/11/01 00:17:25;;;;;;;17.77;10.02;;;13.20;99.90;;;;;;5015804;28;20053;-66
2022/11/01 00:19:52;;;;;;;20.55;10.32;;;13.20;99.90;;;;;;5017159;28;20119;-66
2022/11/01 00:22:20;;;;;;;20.70;11.07;;;13.20;99.90;;;;;;5016088;28;20053;-66
2022/11/01 00:24:47;;;;;;;16.02;9.18;;;13.20;99.90;;;;;;5032172;28;20168;-66
2022/11/01 00:27:14;;;;;;;19.58;10.15;;;13.20;99.90;;;;;;5034169;28;20120;-66
2022/11/01 00:29:42;;;;;;;20.00;9.43;;;13.20;99.90;;;;;;5015981;28;20061;-66
2022/11/01 00:32:09;;;;;;;15.48;9.23;;;13.20;99.90;;;;;;5033788;28;20099;-65
2022/11/01 00:34:36;;;;;;;14.45;9.00;;;13.20;99.90;;;;;;5033967;28;20570;-65
2022/11/01 00:37:03;;;;;;;17.65;9.70;;;13.30;99.90;;;;;;5014319;28;20053;-66
2022/11/01 00:39:29;;;;;;;15.45;10.13;;;13.30;99.90;;;;;;5015909;28;20107;-64
2022/11/01 00:41:56;;;;;;;18.90;8.93;;;13.30;99.90;;;;;;5015832;28;20045;-65
2022/11/01 00:44:23;;;;;;;18.13;8.75;;;13.30;99.90;;;;;;5015814;28;20096;-66
2022/11/01 00:46:51;;;;;;;15.43;8.38;;;13.40;99.90;;;;;;5014251;28;20096;-65
2022/11/01 00:49:18;;;;;;;17.40;8.90;;;13.40;99.90;;;;;;5033107;28;20045;-65
2022/11/01 00:51:45;;;;;;;15.07;9.13;;;13.50;99.90;;;;;;5016101;28;20474;-65
2022/11/01 00:54:12;;;;;;;19.63;9.13;;;13.50;99.90;;;;;;5033296;28;20053;-65
2022/11/01 00:56:38;;;;;;;19.27;9.13;;;13.50;99.90;;;;;;5013961;28;20046;-65
2022/11/01 00:59:05;;;;;;;18.55;8.63;;;13.50;99.90;;;;;;5016083;28;20505;-65
2022/11/01 01:01:32;;;;;;;17.00;8.43;;;13.50;99.90;;;;;;5032810;28;20069;-66
2022/11/01 01:04:00;;;;;;;15.18;8.23;;;13.50;99.90;;;;;;5032839;28;20497;-65
2022/11/01 01:06:27;;;;;;;16.60;8.63;;;13.60;99.90;;;;;;5015429;28;20382;-65
2022/11/01 01:08:57;;;;;;;14.55;8.80;;;13.50;99.90;;;;;;5015299;28;20497;-66
2022/11/01 01:11:24;;;;;;;17.00;9.30;;;13.50;99.90;;;;;;5015191;28;20562;-67
2022/11/01 01:13:51;;;;;;;17.75;8.68;;;13.50;99.90;;;;;;5033036;28;20045;-66
2022/11/01 01:16:17;;;;;;;16.50;8.27;;;13.50;99.90;;;;;;5014773;28;20115;-65
2022/11/01 01:18:44;;;;;;;13.77;7.88;;;13.50;99.90;;;;;;5015374;28;20497;-65
2022/11/01 01:21:13;;;;;;;12.75;8.25;;;13.60;99.90;;;;;;5033586;28;20099;-65
2022/11/01 01:23:40;;;;;;;13.95;7.97;;;13.60;99.90;;;;;;5015859;28;20049;-66
2022/11/01 01:26:07;;;;;;;15.70;8.13;;;13.70;99.90;;;;;;5014900;28;20049;-66
2022/11/01 01:28:35;;;;;;;18.98;7.82;;;13.70;99.90;;;;;;5013914;28;20061;-65
2022/11/01 01:31:06;;;;;;;13.50;7.30;;;13.70;99.90;;;;;;5032176;28;20052;-66
2022/11/01 01:33:33;;;;;;;16.08;7.68;;;13.70;99.90;;;;;;5033472;28;20041;-67
2022/11/01 01:36:00;;;;;;;18.38;8.35;;;13.80;99.90;;;;;;5015060;28;20053;-65
2022/11/01 01:38:28;;;;;;;14.48;7.00;;;13.80;99.90;;;;;;5014282;28;20053;-66
2022/11/01 01:41:54;;;;;;;15.15;7.97;;;13.80;99.90;;;;;;5033020;28;20049;-67
2022/11/01 01:43:43;;;;;;;13.98;7.60;;;13.90;99.90;;;;;;5032506;28;20137;-68
2022/11/01 01:46:10;;;;;;;13.57;6.38;;;14.00;99.90;;;;;;5032327;28;20523;-65
2022/11/01 01:48:39;;;;;;;19.02;8.10;;;14.00;99.90;;;;;;5014600;28;20069;-66
2022/11/01 01:51:09;;;;;;;18.80;7.57;;;14.10;99.90;;;;;;5033321;28;20049;-66
2022/11/01 01:53:40;;;;;;;13.63;7.32;;;14.10;99.90;;;;;;5014759;28;20112;-65
2022/11/01 01:56:11;;;;;;;13.77;7.70;;;14.20;99.90;;;;;;5032456;28;20464;-66
2022/11/01 01:58:42;;;;;;;14.00;7.45;;;14.20;99.90;;;;;;5015054;28;20057;-66
2022/11/01 02:01:09;;;;;;;19.95;7.38;;;14.20;99.90;;;;;;5032397;28;20050;-66
2022/11/01 02:03:37;;;;;;;14.00;8.18;;;14.20;99.90;;;;;;5012931;28;20054;-65
2022/11/01 02:06:09;;;;;;;14.30;7.30;;;14.20;99.90;;;;;;5032180;28;20556;-66
2022/11/01 02:08:41;;;;;;;11.70;7.05;;;14.20;99.90;;;;;;5014293;28;20448;-65
2022/11/01 02:11:10;;;;;;;15.90;7.90;;;14.20;99.90;;;;;;5032715;28;20046;-66
2022/11/01 02:13:37;;;;;;;14.63;7.75;;;14.20;99.90;;;;;;5032139;28;20049;-65
2022/11/01 02:16:44;;;;;;;15.57;7.15;;;14.20;99.90;;;;;;5014591;28;20505;-65
2022/11/01 02:19:51;;;;;;;16.88;7.28;;;14.20;99.90;;;;;;5031532;28;20053;-65
2022/11/01 02:22:23;;;;;;;15.23;7.45;;;14.20;99.90;;;;;;5005586;28;20095;-66
2022/11/01 02:25:23;;;;;;;13.13;6.28;;;14.10;99.90;;;;;;5031065;28;20052;-65
2022/11/01 02:28:12;;;;;;;8.50;5.95;;;14.20;99.90;;;;;;5013373;28;20452;-66
2022/11/01 02:30:44;;;;;;;13.75;7.10;;;14.20;99.90;;;;;;5032416;28;20103;-65
2022/11/01 02:33:26;;;;;;;21.35;7.95;;;14.30;99.90;;;;;;5014488;28;20062;-66
2022/11/01 02:35:59;;;;;;;11.77;6.55;;;14.30;99.90;;;;;;5031776;28;20100;-66
2022/11/01 02:38:29;;;;;;;14.35;6.47;;;14.20;99.90;;;;;;5031807;28;20342;-66
2022/11/01 02:41:03;;;;;;;17.02;7.50;;;14.30;99.90;;;;;;5032244;28;20045;-66
2022/11/01 02:43:34;;;;;;;15.60;7.05;;;14.30;99.90;;;;;;5014218;28;20128;-66
2022/11/01 02:46:59;;;;;;;16.23;6.95;;;14.30;99.90;;;;;;5012621;28;20481;-65
2022/11/01 02:48:54;;;;;;;13.43;7.45;;;14.30;99.90;;;;;;5030264;28;20440;-66
2022/11/01 02:51:24;;;;;;;14.32;7.18;;;14.20;99.90;;;;;;5032143;28;20150;-65
2022/11/01 02:53:51;;;;;;;16.13;7.40;;;14.30;99.90;;;;;;5013875;28;20049;-66
2022/11/01 02:56:19;;;;;;;17.75;6.95;;;14.30;99.90;;;;;;5013775;28;20447;-65
2022/11/01 02:58:47;;;;;;;12.35;7.05;;;14.30;99.90;;;;;;5031612;28;20104;-66
2022/11/01 03:01:23;;;;;;;12.20;6.90;;;14.30;99.90;;;;;;5014255;28;20053;-67
2022/11/01 03:03:54;;;;;;;15.55;6.95;;;14.30;99.90;;;;;;5013678;28;20385;-65
2022/11/01 03:06:26;;;;;;;14.00;6.30;;;14.30;99.90;;;;;;5031405;28;20063;-65
2022/11/01 03:08:58;;;;;;;18.38;7.38;;;14.40;99.90;;;;;;5012950;28;20103;-66
2022/11/01 03:11:33;;;;;;;17.17;6.65;;;14.40;99.90;;;;;;5012149;28;20101;-66
2022/11/01 03:14:07;;;;;;;11.88;6.18;;;14.40;99.90;;;;;;5014106;28;20053;-66
2022/11/01 03:16:36;;;;;;;12.10;6.78;;;14.40;99.90;;;;;;5013306;28;20344;-65
2022/11/01 03:19:29;;;;;;;12.52;6.50;;;14.50;99.90;;;;;;5031374;28;20042;-65
2022/11/01 03:22:01;;;;;;;10.48;6.25;;;14.50;99.90;;;;;;5035829;28;20046;-66
2022/11/01 03:24:31;;;;;;;10.82;6.53;;;14.50;99.90;;;;;;5034084;28;20076;-66
2022/11/01 03:27:04;;;;;;;13.20;6.30;;;14.50;99.90;;;;;;5017440;28;20087;-66
2022/11/01 03:29:32;;;;;;;21.33;6.93;;;14.50;99.90;;;;;;5035419;28;20042;-64
2022/11/01 03:32:02;;;;;;;15.57;6.53;;;14.30;99.90;;;;;;5017216;28;20053;-65
2022/11/01 03:34:34;;;;;;;11.63;6.03;;;14.40;99.90;;;;;;5015806;28;20058;-66
2022/11/01 03:37:05;;;;;;;12.32;6.88;;;14.40;99.90;;;;;;5017616;28;20049;-65
2022/11/01 03:39:36;;;;;;;13.80;6.03;;;14.40;99.90;;;;;;5034638;28;20045;-66
2022/11/01 03:42:07;;;;;;;11.38;6.40;;;14.50;99.90;;;;;;5034833;28;20041;-67
2022/11/01 03:44:38;;;;;;;11.32;6.53;;;14.50;99.90;;;;;;5033735;28;20056;-66
2022/11/01 03:47:05;;;;;;;11.13;6.78;;;14.50;99.90;;;;;;5015158;28;20053;-66
2022/11/01 03:49:33;;;;;;;13.77;6.25;;;14.50;99.90;;;;;;5017038;28;20056;-66
2022/11/01 03:52:00;;;;;;;17.52;6.60;;;14.50;99.90;;;;;;5034574;28;20049;-65
2022/11/01 03:54:28;;;;;;;17.27;6.68;;;14.50;99.90;;;;;;5015502;28;20081;-66
2022/11/01 03:56:55;;;;;;;11.48;5.50;;;14.50;99.90;;;;;;5034103;28;20085;-66
2022/11/01 03:59:23;;;;;;;12.75;6.03;;;14.50;99.90;;;;;;5016543;28;20053;-65
2022/11/01 04:01:50;;;;;;;9.02;5.63;;;14.50;99.90;;;;;;5035308;28;20045;-65
2022/11/01 04:04:17;;;;;;;13.68;5.82;;;14.50;99.90;;;;;;5017227;28;20049;-65
2022/11/01 04:06:45;;;;;;;18.55;6.13;;;14.50;99.90;;;;;;5016336;28;20077;-66
2022/11/01 04:09:12;;;;;;;8.93;5.35;;;14.50;99.90;;;;;;5016365;28;20057;-66
2022/11/01 04:11:38;;;;;;;10.88;6.10;;;14.50;99.90;;;;;;5035047;28;20054;-65
2022/11/01 04:22:19;;;;;;;14.68;6.05;;;14.50;99.90;;;;;;5016835;28;20552;-66
2022/11/01 04:24:46;;;;;;;12.18;6.30;;;14.50;99.90;;;;;;5016300;28;20049;-66
2022/11/01 04:27:13;;;;;;;8.50;5.57;;;14.60;99.90;;;;;;5033204;28;20397;-66
2022/11/01 04:29:40;;;;;;;15.82;5.63;;;14.60;99.90;;;;;;5034234;28;20107;-66
2022/11/01 04:32:06;;;;;;;9.80;5.70;;;14.60;99.90;;;;;;5014612;28;20049;-65
2022/11/01 04:34:42;;;;;;;10.82;5.53;;;14.70;99.90;;;;;;5033793;28;20067;-66
2022/11/01 04:37:09;;;;;;;11.35;5.93;;;14.70;99.90;;;;;;5032949;28;20041;-66
2022/11/01 04:39:37;;;;;;;8.50;5.05;;;14.80;99.90;;;;;;5033372;28;20053;-66
2022/11/01 04:42:05;;;;;;;9.98;5.22;;;14.80;99.90;;;;;;5033961;28;20103;-66
2022/11/01 04:44:32;;;;;;;11.57;5.72;;;14.80;99.90;;;;;;5015733;28;20072;-66
2022/11/01 04:46:58;;;;;;;11.45;5.25;;;14.80;99.90;;;;;;5013287;28;20099;-65
2022/11/01 04:49:25;;;;;;;11.88;5.53;;;14.90;99.90;;;;;;5015556;28;20145;-65
2022/11/01 04:51:52;;;;;;;10.63;5.28;;;14.90;99.90;;;;;;5033901;28;20103;-66
2022/11/01 04:54:19;;;;;;;8.43;4.95;;;14.90;99.90;;;;;;5015412;28;20520;-66
2022/11/01 04:56:47;;;;;;;10.20;5.07;;;14.90;99.90;;;;;;5014823;28;20087;-66
2022/11/01 04:59:14;;;;;;;9.88;4.72;;;15.00;99.90;;;;;;5032664;28;20123;-65
2022/11/01 05:01:41;;;;;;;11.95;4.60;;;15.00;99.90;;;;;;5016493;28;20492;-65
2022/11/01 05:04:08;;;;;;;9.20;4.60;;;15.10;99.90;;;;;;5033168;28;20045;-65
2022/11/01 05:06:34;;;;;;;12.55;4.47;;;15.10;99.90;;;;;;5012832;28;20045;-65
2022/11/01 05:09:01;;;;;;;13.13;4.75;;;15.20;99.90;;;;;;5019093;28;20096;-65
2022/11/01 05:11:28;;;;;;;10.38;4.47;;;15.20;99.90;;;;;;5008808;28;20108;-66
2022/11/01 05:13:56;;;;;;;10.80;5.00;;;15.20;99.90;;;;;;5011486;28;20123;-66
2022/11/01 05:16:23;;;;;;;10.77;5.15;;;15.20;99.90;;;;;;5026683;28;20103;-65
2022/11/01 05:18:50;;;;;;;10.15;4.72;;;15.20;99.90;;;;;;5011875;28;20055;-66
2022/11/01 05:21:17;;;;;;;9.93;4.72;;;15.20;99.90;;;;;;5026707;28;20100;-66
2022/11/01 05:23:44;;;;;;;11.98;4.30;;;15.30;99.90;;;;;;5010238;28;20104;-65
2022/11/01 05:26:11;;;;;;;8.00;4.05;;;15.30;99.90;;;;;;5030436;28;20382;-65
2022/11/01 05:28:38;;;;;;;13.10;4.35;;;15.40;99.90;;;;;;5027244;28;20501;-66
2022/11/01 05:31:06;;;;;;;9.73;4.00;;;15.50;99.90;;;;;;5027133;28;20067;-66
2022/11/01 05:33:33;;;;;;;9.30;3.80;;;15.50;99.90;;;;;;5010017;28;20397;-65
2022/11/01 05:36:00;;;;;;;8.65;4.63;;;15.50;99.90;;;;;;5030783;28;20404;-66
2022/11/01 05:38:27;;;;;;;7.05;4.45;;;15.60;99.90;;;;;;5027561;28;20045;-65
2022/11/01 05:40:54;;;;;;;8.40;4.10;;;15.60;99.90;;;;;;5008251;28;20049;-65
2022/11/01 05:43:21;;;;;;;8.32;3.97;;;15.60;99.90;;;;;;5011175;28;20198;-66
2022/11/01 05:45:48;;;;;;;7.97;3.45;;;15.60;99.90;;;;;;5025276;28;20467;-66
2022/11/01 05:48:16;;;;;;;8.77;3.72;;;15.50;99.90;;;;;;5027023;28;20054;-65
2022/11/01 05:50:43;;;;;;;8.48;3.45;;;15.60;99.90;;;;;;5028076;28;20061;-66
2022/11/01 05:53:10;;;;;;;6.13;3.72;;;15.50;99.90;;;;;;5025309;28;20508;-66
2022/11/01 05:55:37;;;;;;;6.68;3.20;;;15.50;99.90;;;;;;5028501;28;20661;-65
2022/11/01 05:58:05;;;;;;;6.97;2.63;;;15.40;99.90;;;;;;5008979;28;20496;-66
2022/11/01 06:00:33;;;;;;;5.93;2.38;;;15.40;99.90;;;;;;5010867;28;20112;-65
2022/11/01 06:03:00;;;;;;;3.53;2.25;;;15.40;99.90;;;;;;5009530;28;20049;-65
2022/11/01 06:05:29;;;;;;;7.50;1.98;;;15.20;99.90;;;;;;5007924;28;20736;-65
2022/11/01 06:07:56;;;;;;;10.07;1.70;;;15.10;99.90;;;;;;5011219;28;20563;-65
2022/11/01 06:10:23;;;;;;;5.85;1.95;;;15.00;99.90;;;;;;5007019;28;20116;-65
2022/11/01 06:12:50;;;;;;;5.93;2.38;;;14.90;99.90;;;;;;5027743;28;20045;-65
2022/11/01 06:15:17;;;;;;;3.03;1.65;;;14.80;99.90;;;;;;5007198;28;20050;-66
2022/11/01 06:17:44;;;;;;;5.55;1.90;;;14.70;99.90;;;;;;5028483;28;20148;-64
2022/11/01 06:20:12;;;;;;;3.33;1.30;;;14.60;99.90;;;;;;5009864;28;20061;-64
2022/11/01 06:22:40;;;;;;;4.93;2.10;;;14.50;99.90;;;;;;5007161;28;20062;-65
2022/11/01 06:25:08;;;;;;;12.63;2.38;;;14.50;99.90;;;;;;5009721;28;20103;-64
2022/11/01 06:27:35;;;;;;;3.72;1.52;;;14.50;99.90;;;;;;5026237;28;20056;-65
2022/11/01 06:30:01;;;;;;;5.82;1.67;;;14.40;99.90;;;;;;5029456;28;20046;-65
2022/11/01 06:32:28;;;;;;;2.28;1.10;;;14.40;99.90;;;;;;5006973;28;20539;-66
2022/11/01 06:34:55;;;;;;;8.57;1.65;;;14.30;99.90;;;;;;5027049;28;20079;-65
2022/11/01 06:37:22;;;;;;;7.22;1.60;;;14.20;99.90;;;;;;5027307;28;20160;-66
2022/11/01 06:39:50;;;;;;;3.58;1.10;;;14.10;99.90;;;;;;5024983;28;20472;-65
2022/11/01 06:42:17;;;;;;;4.40;1.13;;;14.10;99.90;;;;;;5007003;28;20064;-65
2022/11/01 06:44:44;;;;;;;3.67;1.35;;;14.10;99.90;;;;;;5024464;28;20390;-67
2022/11/01 06:47:12;;;;;;;4.03;1.33;;;14.00;99.90;;;;;;5010484;28;20049;-66
2022/11/01 06:49:39;;;;;;;3.10;1.10;;;14.00;99.90;;;;;;5026726;28;20046;-66
2022/11/01 06:52:06;;;;;;;4.25;1.52;;;13.90;99.90;;;;;;5025108;28;20049;-64
2022/11/01 06:54:33;;;;;;;5.10;1.45;;;13.90;99.90;;;;;;5024363;28;20049;-65
2022/11/01 06:57:01;;;;;;;6.32;1.50;;;13.90;99.90;;;;;;5024253;28;20144;-66
2022/11/01 06:59:28;;;;;;;5.22;1.25;;;13.90;99.90;;;;;;5009994;28;20060;-65
2022/11/01 07:01:55;;;;;;;4.18;1.00;;;13.90;99.90;;;;;;5008330;28;20045;-65
2022/11/01 07:04:22;;;;;;;8.38;1.70;;;13.80;99.90;;;;;;5012800;28;20045;-65
2022/11/01 07:06:49;;;;;;;8.48;1.75;;;13.80;99.90;;;;;;5013362;28;20558;-66
2022/11/01 07:09:16;;;;;;;5.55;1.88;;;13.80;99.90;;;;;;5012951;28;20049;-66
2022/11/01 07:11:43;;;;;;;8.73;1.60;;;13.80;99.90;;;;;;5013650;28;20066;-65
2022/11/01 07:14:11;;;;;;;6.28;1.35;;;13.90;99.90;;;;;;5029408;28;20045;-65
2022/11/01 07:16:38;;;;;;;7.10;1.42;;;13.80;99.90;;;;;;5030386;28;20065;-66
2022/11/01 07:19:05;;;;;;;10.10;2.30;;;13.80;99.90;;;;;;5013487;28;20489;-66
2022/11/01 07:21:32;;;;;;;9.48;2.00;;;13.70;99.90;;;;;;5013588;28;20056;-66
2022/11/01 07:23:59;;;;;;;8.57;1.65;;;13.70;99.90;;;;;;5013545;28;20083;-65
2022/11/01 07:26:26;;;;;;;6.47;2.13;;;13.80;99.90;;;;;;5029815;28;20103;-67
2022/11/01 07:28:53;;;;;;;5.40;2.05;;;13.80;99.90;;;;;;5013330;28;20091;-65
2022/11/01 07:31:21;;;;;;;9.82;2.05;;;13.90;99.90;;;;;;5012552;28;20504;-66
2022/11/01 07:33:48;;;;;;;7.88;1.92;;;14.10;99.90;;;;;;5013363;28;20099;-65
2022/11/01 07:36:15;;;;;;;8.38;2.10;;;14.20;99.90;;;;;;5013798;28;20054;-65
2022/11/01 07:38:41;;;;;;;8.30;2.33;;;14.90;99.90;;;;;;5011011;28;20539;-66
2022/11/01 07:41:09;;;;;;;11.85;2.88;;;15.70;99.90;;;;;;5031074;28;20045;-66
2022/11/01 07:43:37;;;;;;;12.57;2.45;;;16.30;99.90;;;;;;5029557;28;20099;-66
2022/11/01 07:46:05;;;;;;;6.60;1.55;;;16.80;99.90;;;;;;5030853;28;20041;-66
2022/11/01 07:48:35;;;;;;;10.70;2.50;;;16.60;99.90;;;;;;5013058;28;20125;-66
2022/11/01 07:51:04;;;;;;;10.90;2.42;;;16.40;99.90;;;;;;5011208;28;20461;-65
2022/11/01 07:53:32;;;;;;;9.85;2.17;;;16.40;99.90;;;;;;5031415;28;20140;-65
2022/11/01 07:56:00;;;;;;;5.90;2.10;;;16.60;99.90;;;;;;5031370;28;20448;-67
2022/11/01 07:58:28;;;;;;;5.38;1.98;;;17.00;99.90;;;;;;5030495;28;20055;-65
2022/11/01 08:00:54;;;;;;;13.15;2.47;;;17.50;99.90;;;;;;5031209;28;20056;-68
2022/11/01 08:03:22;;;;;;;6.30;1.90;;;17.40;99.90;;;;;;5031113;28;20099;-67
2022/11/01 08:05:51;;;;;;;9.80;2.97;;;16.90;99.90;;;;;;5011647;28;20103;-66
2022/11/01 08:08:17;;;;;;;7.07;2.22;;;16.60;99.90;;;;;;5016508;28;20041;-67
2022/11/01 08:10:44;;;;;;;17.30;2.65;;;16.20;99.90;;;;;;5034856;28;20049;-66
2022/11/01 08:13:16;;;;;;;8.18;1.88;;;15.80;99.90;;;;;;5016619;28;20547;-66
2022/11/01 08:15:43;;;;;;;10.85;2.80;;;15.50;99.90;;;;;;5034240;28;20060;-67
2022/11/01 08:18:10;;;;;;;8.23;2.28;;;15.60;99.90;;;;;;5032912;28;20408;-65
2022/11/01 08:20:37;;;;;;;10.38;2.33;;;15.60;99.90;;;;;;5032201;28;20092;-65
2022/11/01 08:23:05;;;;;;;8.43;2.35;;;15.90;99.90;;;;;;5034271;28;20057;-65
2022/11/01 08:25:33;;;;;;;9.07;2.80;;;15.90;99.90;;;;;;5016726;28;20444;-66
2022/11/01 08:28:05;;;;;;;9.30;2.67;;;15.70;99.90;;;;;;5016148;28;20041;-66
2022/11/01 08:30:32;;;;;;;11.00;2.78;;;15.50;99.90;;;;;;5016287;28;20041;-66
2022/11/01 08:32:59;;;;;;;9.40;2.42;;;15.50;99.90;;;;;;5015757;28;20049;-65
2022/11/01 08:35:26;;;;;;;13.15;3.28;;;15.50;99.90;;;;;;5033608;28;20152;-66
2022/11/01 08:37:54;;;;;;;11.25;2.47;;;15.30;99.90;;;;;;5033645;28;20052;-66
2022/11/01 08:40:22;;;;;;;11.43;3.00;;;15.20;99.90;;;;;;5033488;28;20049;-65
2022/11/01 08:42:49;;;;;;;9.70;2.28;;;15.10;99.90;;;;;;5016181;28;20095;-65
2022/11/01 08:45:17;;;;;;;12.68;3.05;;;14.90;99.90;;;;;;5016484;28;20502;-65
2022/11/01 08:47:44;;;;;;;7.05;2.25;;;14.90;99.90;;;;;;5015493;28;20045;-67
2022/11/01 08:50:14;;;;;;;9.98;2.35;;;14.80;99.90;;;;;;5034056;28;20049;-65
2022/11/01 08:52:42;;;;;;;14.67;2.60;;;14.70;99.90;;;;;;5014885;28;20049;-66
2022/11/01 08:55:10;;;;;;;15.85;2.85;;;14.70;99.90;;;;;;5015707;28;20057;-66
2022/11/01 08:57:38;;;;;;;11.13;3.03;;;14.60;99.90;;;;;;5015955;28;20132;-66
2022/11/01 09:00:07;;;;;;;10.98;3.22;;;14.70;99.90;;;;;;5031617;28;20049;-66
2022/11/01 09:02:34;;;;;;;10.93;3.10;;;14.70;99.90;;;;;;5032465;28;20584;-66
2022/11/01 09:05:04;;;;;;;9.63;3.20;;;14.70;99.90;;;;;;5015702;28;20053;-66
2022/11/01 09:07:31;;;;;;;16.15;3.17;;;14.70;99.90;;;;;;5033164;28;20041;-66
2022/11/01 09:09:57;;;;;;;17.90;3.65;;;14.80;99.90;;;;;;5014964;28;20057;-66
2022/11/01 09:12:24;;;;;;;9.27;3.05;;;15.50;99.90;;;;;;5015916;28;20045;-67
2022/11/01 09:14:52;;;;;;;18.38;4.22;;;16.80;99.90;;;;;;5015553;28;20052;-66
2022/11/01 09:17:19;;;;;;;12.90;2.60;;;17.90;99.90;;;;;;5013199;28;20057;-65
2022/11/01 09:19:46;;;;;;;12.52;3.03;;;18.50;99.90;;;;;;5032658;28;20049;-66
2022/11/01 09:22:13;;;;;;;13.10;3.22;;;18.90;99.90;;;;;;5015070;28;20563;-66
2022/11/01 09:24:40;;;;;;;19.88;3.25;;;19.40;99.90;;;;;;5033294;28;20100;-66
2022/11/01 09:27:07;;;;;;;11.82;2.85;;;18.90;99.90;;;;;;5015432;28;20045;-66
2022/11/01 09:29:34;;;;;;;16.83;2.50;;;19.00;99.30;;;;;;5013039;28;20118;-66
2022/11/01 09:32:03;;;;;;;11.27;2.90;;;18.90;99.80;;;;;;5033118;28;20115;-66
2022/11/01 09:34:30;;;;;;;14.45;3.38;;;19.10;99.80;;;;;;5033239;28;20053;-66
2022/11/01 09:36:56;;;;;;;9.60;2.50;;;18.70;99.90;;;;;;5015001;28;20107;-66
2022/11/01 09:39:23;;;;;;;12.43;3.20;;;18.40;99.90;;;;;;5032878;28;20489;-66
2022/11/01 09:41:53;;;;;;;13.77;3.17;;;17.90;99.90;;;;;;5013545;28;20061;-67
2022/11/01 09:44:26;;;;;;;13.13;3.17;;;17.70;99.90;;;;;;5032593;28;20056;-66
2022/11/01 09:46:59;;;;;;;12.30;2.75;;;17.80;99.90;;;;;;5014999;28;21254;-65
2022/11/01 09:49:31;;;;;;;14.48;3.60;;;18.40;99.90;;;;;;5033184;28;20451;-66
2022/11/01 09:51:58;;;;;;;11.00;2.70;;;18.70;99.90;;;;;;5032551;28;20049;-65
2022/11/01 09:54:27;;;;;;;11.52;3.75;;;19.00;99.90;;;;;;5032894;28;20049;-66
2022/11/01 09:57:03;;;;;;;12.43;3.13;;;19.70;99.40;;;;;;5014932;28;20049;-65
2022/11/01 09:59:36;;;;;;;11.13;2.90;;;20.50;98.20;;;;;;5014128;28;20111;-67
2022/11/01 10:02:24;;;;;;;11.02;3.20;;;20.80;97.10;;;;;;5014531;28;20508;-66
2022/11/01 10:05:06;;;;;;;7.82;2.25;;;21.30;96.30;;;;;;5014524;28;20402;-66
2022/11/01 10:07:45;;;;;;;11.63;2.88;;;21.50;96.20;;;;;;5012472;28;20132;-66
2022/11/01 10:10:27;;;;;;;14.75;3.13;;;21.90;94.20;;;;;;5013817;28;20056;-66
2022/11/01 10:13:02;;;;;;;12.57;3.08;;;21.70;94.80;;;;;;5013864;28;20551;-66
2022/11/01 10:15:41;;;;;;;11.57;2.78;;;21.80;94.90;;;;;;5029849;28;20416;-67
2022/11/01 10:18:21;;;;;;;12.13;2.58;;;21.50;94.50;;;;;;5031934;28;20489;-66
2022/11/01 10:20:50;;;;;;;15.10;2.80;;;21.80;94.80;;;;;;5013144;28;20057;-66
2022/11/01 10:23:19;;;;;;;12.57;2.92;;;21.50;94.40;;;;;;5007343;28;20451;-66
2022/11/01 10:25:53;;;;;;;13.27;3.20;;;21.10;94.70;;;;;;5013737;28;20049;-65
2022/11/01 10:28:26;;;;;;;12.48;3.13;;;20.20;96.00;;;;;;5031762;28;20120;-66
2022/11/01 10:30:57;;;;;;;13.98;3.25;;;20.00;97.40;;;;;;5031276;28;20049;-65
2022/11/01 10:33:30;;;;;;;12.55;2.90;;;20.10;97.60;;;;;;5031686;28;20053;-66
2022/11/01 10:36:01;;;;;;;12.02;3.13;;;20.30;97.30;;;;;;5014221;28;20049;-66
2022/11/01 10:38:36;;;;;;;11.38;2.58;;;20.30;97.30;;;;;;5014533;28;20053;-66
2022/11/01 10:41:17;;;;;;;12.00;3.42;;;20.60;97.00;;;;;;5014089;28;20140;-66
2022/11/01 10:43:47;;;;;;;11.55;2.90;;;20.90;95.80;;;;;;5031690;28;20080;-66
2022/11/01 10:46:18;;;;;;;8.35;2.97;;;21.20;96.10;;;;;;5014411;28;20547;-66
2022/11/01 10:48:49;;;;;;;9.52;2.80;;;21.10;95.70;;;;;;5013666;28;20049;-65
2022/11/01 10:51:20;;;;;;;10.48;2.83;;;20.50;96.60;;;;;;5031766;28;20132;-66
2022/11/01 10:53:50;;;;;;;12.27;3.13;;;19.30;98.00;;;;;;5026202;28;20056;-65
2022/11/01 10:56:21;;;;;;;16.08;2.45;;;18.90;99.30;;;;;;5013768;28;20077;-66
2022/11/01 10:58:57;;;;;;;12.43;2.53;;;18.30;99.90;;;;;;5013994;28;20053;-66
2022/11/01 11:01:27;;;;;;;16.17;3.25;;;17.80;99.90;;;;;;5012896;28;20133;-65
2022/11/01 11:03:56;;;;;;;19.35;2.97;;;17.40;99.90;;;;;;5012606;28;20080;-65
2022/11/01 11:06:24;;;;;;;12.30;2.93;;;16.90;99.90;;;;;;5031891;28;20053;-65
2022/11/01 11:08:54;;;;;;;10.95;3.30;;;16.70;99.90;;;;;;5012767;28;20053;-65
2022/11/01 11:11:30;;;;;;;9.02;3.03;;;16.40;99.90;;;;;;5031660;28;20049;-66
2022/11/01 11:14:00;;;;;;;10.88;2.95;;;16.10;99.90;;;;;;5031633;28;20049;-65
2022/11/01 11:16:31;;;;;;;13.68;3.45;;;16.10;99.90;;;;;;5031127;28;20132;-65
2022/11/01 11:19:14;;;;;;;14.32;3.05;;;16.30;99.90;;;;;;5030010;28;20060;-66
2022/11/01 11:21:43;;;;;;;12.63;3.30;;;16.50;99.90;;;;;;5031440;28;20424;-65
2022/11/01 11:24:18;;;;;;;16.35;3.00;;;16.50;99.90;;;;;;5013506;28;20168;-66
2022/11/01 11:26:47;;;;;;;17.38;3.15;;;16.40;99.90;;;;;;5031446;28;20054;-66
2022/11/01 11:29:35;;;;;;;13.80;3.13;;;16.30;99.90;;;;;;5013283;28;20052;-65
2022/11/01 11:32:04;;;;;;;12.45;3.17;;;16.40;99.90;;;;;;5011700;28;20096;-65
2022/11/01 11:34:34;;;;;;;15.82;3.22;;;16.50;99.90;;;;;;5013681;28;20053;-66
2022/11/01 11:37:03;;;;;;;15.38;3.30;;;16.60;99.90;;;;;;5012529;28;20058;-65
2022/11/01 11:39:34;;;;;;;9.68;3.25;;;16.50;99.90;;;;;;5013250;28;20046;-66
2022/11/01 11:42:12;;;;;;;;;;;16.50;99.90;;;;;;5015120;28;20517;-65
2022/11/01 11:44:42;;;;;;;13.60;2.78;;;16.70;99.90;;;;;;5017289;28;20008;-65
2022/11/01 11:47:20;;;;;;;12.60;4.18;;;17.50;99.90;;;;;;5033396;28;20041;-64
2022/11/01 11:49:48;;;;;;;11.23;3.20;;;18.20;99.90;;;;;;5021094;28;20042;-65
2022/11/01 11:52:19;;;;;;;10.88;2.90;;;18.80;99.90;;;;;;5002687;28;20056;-66
2022/11/01 11:54:46;;;;;;;;;;;19.70;99.90;;;;;;5011907;28;20076;-64
2022/11/01 11:57:19;;;;;;;7.70;2.97;;;20.30;99.90;;;;;;5013295;28;20388;-65
2022/11/01 11:59:51;;;;;;;13.20;2.92;;;20.90;99.90;;;;;;5025135;28;20048;-65
2022/11/01 12:02:22;;;;;;;15.82;2.20;;;21.30;99.90;;;;;;5027253;28;20568;-64
2022/11/01 12:04:57;;;;;;;8.10;2.90;;;21.90;98.70;;;;;;5013544;28;20049;-65
2022/11/01 12:07:29;;;;;;;9.27;2.60;;;21.90;97.40;;;;;;5010406;28;20064;-64
2022/11/01 12:10:00;;;;;;;12.68;2.90;;;21.80;97.50;;;;;;5028871;28;20519;-64
2022/11/01 12:12:29;;;;;;;12.00;2.88;;;21.10;97.20;;;;;;5026435;28;20042;-65
2022/11/01 12:14:58;;;;;;;9.23;2.20;;;20.70;98.50;;;;;;5010859;28;20057;-64
2022/11/01 12:17:31;;;;;;;8.95;2.72;;;20.70;98.80;;;;;;5032078;28;20507;-65
2022/11/01 12:20:01;;;;;;;9.63;2.50;;;20.80;98.60;;;;;;5027425;28;20489;-64
2022/11/01 12:22:33;;;;;;;8.23;2.17;;;21.10;97.70;;;;;;5011901;28;20103;-65
2022/11/01 12:25:04;;;;;;;15.25;3.05;;;21.20;97.50;;;;;;5027173;28;20111;-65
2022/11/01 12:27:34;;;;;;;11.30;2.42;;;20.90;97.90;;;;;;5014066;28;20084;-65
2022/11/01 12:30:07;;;;;;;8.25;2.63;;;21.10;98.00;;;;;;5034239;28;20045;-66
2022/11/01 12:32:43;;;;;;;9.90;2.53;;;21.40;97.70;;;;;;5015849;28;20140;-66
2022/11/01 12:35:18;;;;;;;8.07;2.70;;;21.40;97.20;;;;;;5015901;28;20061;-65
2022/11/01 12:37:54;;;;;;;7.63;2.10;;;21.60;97.30;;;;;;5033976;28;20180;-66
2022/11/01 12:40:26;;;;;;;9.77;2.53;;;21.10;96.90;;;;;;5033765;28;20064;-64
2022/11/01 12:42:57;;;;;;;7.90;2.30;;;20.60;97.90;;;;;;5016443;28;20098;-65
2022/11/01 12:45:29;;;;;;;11.00;2.70;;;20.40;98.40;;;;;;5016576;28;20101;-65
2022/11/01 12:48:00;;;;;;;13.43;2.40;;;21.00;98.60;;;;;;5034266;28;20071;-65
2022/11/01 12:50:33;;;;;;;8.70;2.90;;;22.10;97.70;;;;;;5033901;28;20096;-65
2022/11/01 12:53:08;;;;;;;14.63;2.92;;;22.40;95.60;;;;;;5014831;28;20049;-64
2022/11/01 12:55:37;;;;;;;10.00;2.50;;;22.80;94.70;;;;;;5014560;28;20148;-65
2022/11/01 12:58:06;;;;;;;8.53;2.43;;;22.80;95.20;;;;;;5016557;28;20405;-65
2022/11/01 13:00:47;;;;;;;8.27;2.25;;;22.70;94.70;;;;;;5015823;28;20292;-65